Time;durP1;ratioP1;P1;durP2;ratioP2;P2;SDS_P1;SDS_P2;PMS_P1;PMS_P2;Temp;Humidity;BMP_temperature;BMP_pressure;BME280_temperature;BME280_humidity;BME280_pressure;Samples;Min_cycle;Max_cycle;Signal;HPM_P1;HPM_P2
2022/08/21 00:00:12;;;;;;;16.10;2.50;;;14.90;56.10;;;;;;5044705;28;20223;-76
2022/08/21 00:02:51;;;;;;;10.43;2.30;;;15.00;56.50;;;;;;5018606;28;20212;-76
2022/08/21 00:05:19;;;;;;;8.13;2.10;;;15.20;55.20;;;;;;5034417;28;20687;-75
2022/08/21 00:07:47;;;;;;;7.70;2.20;;;15.20;55.30;;;;;;5040365;28;20254;-75
2022/08/21 00:10:16;;;;;;;8.60;2.30;;;15.20;54.90;;;;;;5052794;28;20260;-76
2022/08/21 00:12:45;;;;;;;10.93;2.37;;;15.40;55.20;;;;;;5052286;28;20192;-76
2022/08/21 00:15:16;;;;;;;8.63;2.43;;;15.40;53.80;;;;;;5036016;28;20185;-76
2022/08/21 00:17:43;;;;;;;6.63;2.53;;;15.60;54.00;;;;;;5022841;28;20186;-74
2022/08/21 00:20:12;;;;;;;7.53;2.37;;;15.70;53.40;;;;;;5018558;28;20211;-76
2022/08/21 00:22:41;;;;;;;8.40;2.20;;;15.50;53.00;;;;;;5052374;28;20229;-76
2022/08/21 00:25:09;;;;;;;7.33;1.90;;;15.70;52.90;;;;;;5052633;28;20173;-73
2022/08/21 00:27:37;;;;;;;9.27;2.37;;;15.50;53.40;;;;;;5052627;28;20210;-74
2022/08/21 00:30:06;;;;;;;7.13;2.00;;;15.60;53.20;;;;;;5048409;28;20701;-75
2022/08/21 00:32:34;;;;;;;8.03;1.87;;;15.80;52.30;;;;;;5052295;28;20575;-75
2022/08/21 00:35:01;;;;;;;7.93;2.00;;;15.80;51.50;;;;;;5040189;28;20181;-73
2022/08/21 00:37:29;;;;;;;7.87;2.40;;;15.80;51.10;;;;;;5012920;28;20262;-75
2022/08/21 00:39:56;;;;;;;7.37;1.90;;;16.00;51.50;;;;;;5034372;28;20234;-76
2022/08/21 00:42:23;;;;;;;5.77;1.80;;;16.30;50.80;;;;;;5041254;28;20228;-74
2022/08/21 00:44:51;;;;;;;3.60;1.57;;;16.40;50.50;;;;;;5019402;28;20184;-75
2022/08/21 00:47:20;;;;;;;5.23;1.53;;;16.30;49.90;;;;;;5023242;28;20282;-74
2022/08/21 00:49:48;;;;;;;9.20;1.83;;;16.20;48.40;;;;;;5036152;28;20180;-74
2022/08/21 00:52:25;;;;;;;4.90;1.40;;;16.20;48.80;;;;;;5050166;28;20170;-75
2022/08/21 00:54:54;;;;;;;5.30;1.70;;;16.30;48.80;;;;;;5051801;28;20588;-77
2022/08/21 00:57:30;;;;;;;6.67;1.83;;;16.10;49.10;;;;;;5051480;28;20199;-75
2022/08/21 01:00:01;;;;;;;5.47;2.03;;;16.30;49.20;;;;;;5040236;28;20312;-77
2022/08/21 01:02:28;;;;;;;4.87;1.60;;;16.40;48.30;;;;;;5034877;28;20174;-75
2022/08/21 01:04:57;;;;;;;2.93;1.40;;;16.60;47.80;;;;;;5031076;28;20173;-77
2022/08/21 01:07:24;;;;;;;4.43;1.13;;;16.70;47.00;;;;;;5052548;28;20707;-72
2022/08/21 01:09:52;;;;;;;3.80;1.27;;;16.70;46.60;;;;;;5052051;28;20285;-75
2022/08/21 01:12:20;;;;;;;4.47;1.50;;;16.70;47.00;;;;;;5052734;28;20564;-76
2022/08/21 01:14:48;;;;;;;3.60;1.37;;;16.90;46.40;;;;;;5052704;28;20218;-76
2022/08/21 01:17:16;;;;;;;6.33;1.50;;;16.90;46.90;;;;;;5052240;28;20170;-75
2022/08/21 01:19:44;;;;;;;4.13;1.50;;;16.90;47.20;;;;;;5052199;28;20506;-75
2022/08/21 01:22:11;;;;;;;7.17;1.47;;;17.00;46.40;;;;;;5031997;28;20634;-76
2022/08/21 01:24:39;;;;;;;4.20;1.50;;;17.30;46.30;;;;;;5022529;28;20662;-76
2022/08/21 01:27:06;;;;;;;5.23;1.40;;;17.50;46.10;;;;;;5040305;28;20540;-77
2022/08/21 01:29:55;;;;;;;4.53;1.37;;;17.60;45.70;;;;;;5034875;28;20209;-76
2022/08/21 01:32:23;;;;;;;2.43;1.27;;;17.70;44.60;;;;;;5034673;28;20177;-73
2022/08/21 01:34:52;;;;;;;5.97;1.60;;;17.70;44.20;;;;;;5052236;28;20304;-76
2022/08/21 01:37:21;;;;;;;3.97;1.40;;;17.70;44.40;;;;;;5055500;28;20178;-75
2022/08/21 01:39:49;;;;;;;2.50;1.17;;;18.00;44.30;;;;;;5047221;28;20239;-75
2022/08/21 01:42:16;;;;;;;6.30;1.47;;;18.20;43.90;;;;;;5045167;28;20171;-74
2022/08/21 01:44:44;;;;;;;5.17;1.33;;;18.00;44.00;;;;;;5055498;28;20669;-73
2022/08/21 01:47:13;;;;;;;4.43;1.37;;;18.10;43.20;;;;;;5055157;28;20583;-76
2022/08/21 01:49:41;;;;;;;6.30;1.33;;;17.90;43.10;;;;;;5037809;28;20516;-77
2022/08/21 01:52:10;;;;;;;3.70;1.40;;;17.80;43.30;;;;;;5049251;28;20188;-77
2022/08/21 01:54:39;;;;;;;5.23;1.40;;;18.00;43.70;;;;;;5036315;28;20185;-79
2022/08/21 01:57:08;;;;;;;5.30;1.33;;;18.00;43.80;;;;;;5046372;28;20230;-79
2022/08/21 01:59:36;;;;;;;5.07;1.43;;;18.30;43.70;;;;;;5044326;28;20275;-81
2022/08/21 02:02:04;;;;;;;5.03;1.70;;;18.30;42.50;;;;;;5035156;28;20207;-80
2022/08/21 02:04:32;;;;;;;3.53;1.43;;;18.80;42.20;;;;;;5031828;28;20195;-77
2022/08/21 02:07:01;;;;;;;3.57;1.37;;;18.60;41.50;;;;;;5038404;28;20187;-78
2022/08/21 02:09:28;;;;;;;4.27;1.20;;;18.80;41.40;;;;;;5044458;28;20191;-79
2022/08/21 02:11:56;;;;;;;4.93;1.70;;;18.70;42.00;;;;;;5047100;28;20276;-78
2022/08/21 02:14:23;;;;;;;4.53;1.40;;;18.70;41.00;;;;;;5038560;28;20176;-76
2022/08/21 02:16:51;;;;;;;2.47;1.20;;;18.90;40.50;;;;;;5039080;28;20223;-77
2022/08/21 02:19:18;;;;;;;6.27;1.30;;;19.20;40.50;;;;;;5031498;28;20270;-80
2022/08/21 02:21:45;;;;;;;2.17;1.10;;;19.00;40.70;;;;;;5050494;28;20179;-76
2022/08/21 02:24:13;;;;;;;8.80;1.80;;;19.40;40.40;;;;;;5027406;28;21121;-77
2022/08/21 02:26:41;;;;;;;5.60;3.43;;;19.30;39.90;;;;;;5028085;28;20174;-77
2022/08/21 02:29:08;;;;;;;3.00;1.30;;;19.50;39.60;;;;;;5039350;28;20180;-77
2022/08/21 02:31:36;;;;;;;4.03;1.20;;;19.50;40.10;;;;;;5038740;28;20172;-76
2022/08/21 02:34:03;;;;;;;3.43;1.20;;;19.30;40.30;;;;;;5041933;28;20522;-77
2022/08/21 02:36:31;;;;;;;4.13;1.10;;;19.20;40.20;;;;;;5042146;28;20726;-77
2022/08/21 02:38:58;;;;;;;3.70;1.23;;;19.30;39.70;;;;;;5045990;28;20360;-77
2022/08/21 02:41:26;;;;;;;1.77;1.00;;;19.30;39.30;;;;;;5040847;28;20180;-78
2022/08/21 02:43:53;;;;;;;4.97;1.40;;;19.40;39.30;;;;;;5047208;28;20183;-79
2022/08/21 02:46:21;;;;;;;4.83;1.03;;;19.20;39.30;;;;;;5029332;28;20279;-77
2022/08/21 02:48:49;;;;;;;6.47;1.00;;;19.10;39.00;;;;;;5029481;28;20200;-77
2022/08/21 02:51:20;;;;;;;2.70;1.40;;;19.10;40.10;;;;;;5044640;28;20188;-77
2022/08/21 02:53:48;;;;;;;4.33;1.23;;;19.00;39.60;;;;;;5033385;28;20267;-80
2022/08/21 02:56:18;;;;;;;9.10;1.40;;;19.40;38.50;;;;;;5033534;28;20251;-81
2022/08/21 02:58:49;;;;;;;2.67;1.30;;;19.50;38.20;;;;;;5026310;28;20682;-78
2022/08/21 03:01:17;;;;;;;3.43;1.00;;;19.70;37.90;;;;;;5021613;28;20207;-75
2022/08/21 03:03:46;;;;;;;3.37;1.23;;;19.60;37.30;;;;;;5034836;28;20175;-78
2022/08/21 03:06:16;;;;;;;3.97;1.30;;;20.00;37.20;;;;;;5037335;28;20692;-82
2022/08/21 03:08:45;;;;;;;2.50;1.30;;;20.20;36.80;;;;;;5054111;28;20233;-82
2022/08/21 03:11:14;;;;;;;3.43;1.23;;;20.60;36.10;;;;;;5038588;28;20184;-83
2022/08/21 03:13:45;;;;;;;3.70;1.80;;;20.00;36.50;;;;;;5033562;28;20192;-82
2022/08/21 03:16:12;;;;;;;3.30;1.10;;;20.10;36.80;;;;;;5035704;28;20199;-83
2022/08/21 03:18:40;;;;;;;4.97;1.40;;;20.30;36.60;;;;;;5034379;28;20626;-84
2022/08/21 03:21:07;;;;;;;1.40;0.93;;;20.40;36.20;;;;;;5045228;28;20229;-83
2022/08/21 03:23:35;;;;;;;4.73;1.10;;;20.50;35.60;;;;;;5038295;28;20175;-77
2022/08/21 03:26:02;;;;;;;5.60;1.17;;;20.40;35.50;;;;;;5031454;28;20552;-77
2022/08/21 03:28:30;;;;;;;5.67;1.10;;;20.20;36.20;;;;;;5039102;28;20262;-80
2022/08/21 03:30:57;;;;;;;2.43;1.17;;;20.80;35.20;;;;;;5032420;28;20176;-77
2022/08/21 03:33:25;;;;;;;3.07;0.87;;;20.80;34.70;;;;;;5033411;28;20267;-81
2022/08/21 03:36:01;;;;;;;4.17;1.13;;;20.50;35.40;;;;;;5036954;28;20183;-77
2022/08/21 03:38:30;;;;;;;2.10;1.00;;;20.80;35.00;;;;;;5038795;28;20179;-77
2022/08/21 03:40:58;;;;;;;3.40;1.30;;;21.10;33.60;;;;;;5033115;28;20216;-78
2022/08/21 03:43:26;;;;;;;1.90;0.70;;;21.70;33.00;;;;;;5033392;28;20168;-77
2022/08/21 03:45:54;;;;;;;2.07;0.67;;;21.80;32.60;;;;;;5051321;28;20195;-76
2022/08/21 03:48:22;;;;;;;6.97;1.10;;;21.60;32.30;;;;;;5031521;28;20229;-82
2022/08/21 03:50:52;;;;;;;1.63;1.03;;;21.60;32.30;;;;;;5042512;28;20275;-78
2022/08/21 03:53:20;;;;;;;2.43;0.70;;;21.30;32.70;;;;;;5040160;28;20633;-76
2022/08/21 03:55:50;;;;;;;1.40;0.70;;;21.70;31.30;;;;;;5037812;28;20193;-77
2022/08/21 03:58:20;;;;;;;3.83;1.00;;;21.50;32.40;;;;;;5039106;28;20176;-76
2022/08/21 04:00:51;;;;;;;1.37;0.80;;;21.80;32.60;;;;;;5033536;28;20210;-76
2022/08/21 04:03:19;;;;;;;2.00;0.80;;;22.70;30.90;;;;;;5030352;28;20286;-76
2022/08/21 04:05:47;;;;;;;2.00;0.90;;;22.80;30.50;;;;;;5045461;28;20186;-78
2022/08/21 04:08:18;;;;;;;4.47;0.90;;;22.80;29.80;;;;;;5050282;28;20172;-76
2022/08/21 04:10:49;;;;;;;1.83;0.70;;;22.50;30.60;;;;;;5028489;28;20188;-77
2022/08/21 04:13:16;;;;;;;2.23;1.00;;;22.70;30.10;;;;;;5030731;28;20204;-78
2022/08/21 04:15:43;;;;;;;3.07;1.00;;;22.80;29.70;;;;;;5039724;28;20184;-79
2022/08/21 04:18:11;;;;;;;2.43;1.03;;;22.60;30.40;;;;;;5032789;28;20181;-80
2022/08/21 04:20:39;;;;;;;1.60;0.77;;;22.80;29.00;;;;;;5020000;28;20220;-82
2022/08/21 04:23:07;;;;;;;3.70;0.93;;;23.10;29.10;;;;;;5045555;28;20234;-84
2022/08/21 04:25:35;;;;;;;6.13;1.30;;;23.20;28.40;;;;;;5036595;28;20176;-77
2022/08/21 04:28:03;;;;;;;3.90;1.03;;;23.20;27.40;;;;;;5041195;28;20205;-80
2022/08/21 04:30:31;;;;;;;11.33;2.40;;;22.80;27.70;;;;;;5022009;28;20186;-80
2022/08/21 04:32:59;;;;;;;6.60;1.30;;;23.20;27.50;;;;;;5025638;28;20274;-77
2022/08/21 04:35:28;;;;;;;6.73;0.70;;;23.40;26.50;;;;;;5037702;28;20567;-77
2022/08/21 04:37:56;;;;;;;1.00;0.60;;;23.50;26.20;;;;;;5039697;28;20169;-76
2022/08/21 04:40:25;;;;;;;1.33;0.70;;;23.90;26.50;;;;;;5047705;28;20223;-76
2022/08/21 04:42:57;;;;;;;2.47;0.90;;;24.00;26.50;;;;;;5033905;28;20210;-82
2022/08/21 04:45:34;;;;;;;23.33;2.60;;;23.80;26.90;;;;;;5048872;28;20641;-84
2022/08/21 04:48:04;;;;;;;53.03;5.77;;;24.10;26.80;;;;;;5026472;28;20224;-78
2022/08/21 04:50:45;;;;;;;7.90;1.47;;;23.30;28.10;;;;;;5050962;28;20199;-81
2022/08/21 04:53:20;;;;;;;6.00;1.50;;;21.40;38.50;;;;;;5046507;28;20753;-80
2022/08/21 04:55:48;;;;;;;20.53;2.10;;;21.80;38.60;;;;;;5047751;28;20216;-80
2022/08/21 04:58:19;;;;;;;15.80;2.47;;;22.30;36.60;;;;;;5040560;28;20180;-81
2022/08/21 05:00:47;;;;;;;4.83;1.53;;;22.70;36.90;;;;;;5032683;28;20570;-79
2022/08/21 05:03:17;;;;;;;28.93;4.03;;;21.90;38.90;;;;;;5041558;28;20179;-80
2022/08/21 05:05:45;;;;;;;15.27;2.93;;;22.50;38.60;;;;;;5042991;28;20208;-82
2022/08/21 05:08:18;;;;;;;8.07;1.53;;;22.50;38.00;;;;;;5037586;28;20173;-83
2022/08/21 05:10:46;;;;;;;8.10;1.63;;;22.70;38.10;;;;;;5035040;28;20176;-81
2022/08/21 05:13:14;;;;;;;5.27;1.43;;;23.40;36.70;;;;;;5055536;28;20172;-82
2022/08/21 05:15:42;;;;;;;3.30;1.57;;;24.30;34.80;;;;;;5045902;28;20510;-81
2022/08/21 05:18:09;;;;;;;14.50;2.50;;;23.30;36.60;;;;;;5039689;28;20283;-81
2022/08/21 05:20:37;;;;;;;6.70;1.57;;;23.40;35.90;;;;;;5048938;28;20604;-82
2022/08/21 05:23:09;;;;;;;6.20;2.20;;;23.70;36.10;;;;;;5044663;28;20238;-82
2022/08/21 05:25:37;;;;;;;7.87;1.80;;;23.30;37.30;;;;;;5039462;28;20650;-83
2022/08/21 05:28:06;;;;;;;8.23;1.83;;;23.20;37.30;;;;;;5049836;28;20198;-81
2022/08/21 05:30:34;;;;;;;19.30;2.43;;;23.40;36.50;;;;;;5038358;28;20662;-82
2022/08/21 05:33:03;;;;;;;9.80;2.13;;;23.30;36.80;;;;;;5037393;28;20659;-82
2022/08/21 05:35:32;;;;;;;5.43;1.63;;;23.90;36.40;;;;;;5055803;28;20534;-80
2022/08/21 05:38:00;;;;;;;26.43;3.17;;;23.80;36.10;;;;;;5053167;28;20251;-80
2022/08/21 05:40:28;;;;;;;5.97;1.63;;;23.30;37.00;;;;;;5029802;28;20281;-80
2022/08/21 05:42:58;;;;;;;26.13;3.10;;;22.90;38.20;;;;;;5050907;28;20180;-85
2022/08/21 05:45:32;;;;;;;5.97;1.30;;;22.20;38.50;;;;;;5039312;28;20618;-83
2022/08/21 05:48:10;;;;;;;5.70;1.40;;;22.20;38.90;;;;;;5053047;28;20187;-82
2022/08/21 05:50:37;;;;;;;5.67;1.53;;;22.30;39.30;;;;;;5037575;28;20180;-82
2022/08/21 05:53:06;;;;;;;6.80;1.87;;;22.00;39.60;;;;;;5053803;28;20204;-82
2022/08/21 05:55:33;;;;;;;4.40;1.43;;;22.10;39.60;;;;;;5051799;28;20247;-81
2022/08/21 05:58:00;;;;;;;33.97;4.57;;;22.30;39.50;;;;;;5053891;28;20182;-81
2022/08/21 06:00:28;;;;;;;6.43;1.90;;;22.00;40.20;;;;;;5052100;28;20294;-79
2022/08/21 06:02:55;;;;;;;6.30;1.90;;;22.10;39.90;;;;;;5054163;28;20179;-78
2022/08/21 06:05:23;;;;;;;29.10;4.50;;;22.40;39.30;;;;;;5055581;28;20224;-78
2022/08/21 06:07:51;;;;;;;7.27;1.50;;;22.40;39.60;;;;;;5054446;28;20580;-80
2022/08/21 06:10:18;;;;;;;8.27;2.27;;;22.00;40.50;;;;;;5054877;28;20184;-82
2022/08/21 06:12:46;;;;;;;6.20;1.57;;;21.90;41.30;;;;;;5055051;28;20657;-84
2022/08/21 06:15:13;;;;;;;8.03;1.80;;;22.00;41.30;;;;;;5054616;28;20176;-79
2022/08/21 06:17:40;;;;;;;6.27;1.70;;;21.80;41.10;;;;;;5052238;28;20172;-81
2022/08/21 06:20:08;;;;;;;5.20;1.67;;;21.30;42.20;;;;;;5054757;28;20200;-77
2022/08/21 06:22:36;;;;;;;8.13;1.63;;;21.30;42.00;;;;;;5050595;28;20330;-81
2022/08/21 06:25:03;;;;;;;8.80;1.80;;;21.30;42.40;;;;;;5039278;28;20291;-81
2022/08/21 06:27:31;;;;;;;7.20;1.70;;;20.70;43.60;;;;;;5049529;28;20330;-81
2022/08/21 06:29:58;;;;;;;3.77;1.50;;;20.00;45.50;;;;;;5039957;28;20184;-81
2022/08/21 06:32:26;;;;;;;6.90;1.50;;;19.20;47.90;;;;;;5044264;28;20176;-80
2022/08/21 06:34:53;;;;;;;6.53;1.70;;;18.60;49.90;;;;;;5054446;28;20265;-81
2022/08/21 06:37:20;;;;;;;16.67;2.40;;;18.30;50.60;;;;;;5053573;28;20172;-83
2022/08/21 06:39:48;;;;;;;6.27;1.63;;;18.00;51.80;;;;;;5052327;28;20327;-76
2022/08/21 06:42:16;;;;;;;13.43;2.43;;;17.70;52.50;;;;;;5054552;28;20208;-79
2022/08/21 06:44:44;;;;;;;4.77;1.73;;;17.40;53.10;;;;;;5048735;28;20654;-81
2022/08/21 06:47:12;;;;;;;20.03;2.43;;;17.40;53.70;;;;;;5048331;28;20180;-83
2022/08/21 06:49:39;;;;;;;7.20;1.77;;;17.40;53.40;;;;;;5039802;28;20271;-79
2022/08/21 06:52:11;;;;;;;6.40;1.50;;;17.20;53.60;;;;;;5036809;28;20194;-78
2022/08/21 06:54:39;;;;;;;8.50;2.20;;;17.00;54.40;;;;;;5052503;28;20558;-79
2022/08/21 06:57:07;;;;;;;7.40;1.90;;;17.00;54.80;;;;;;5034320;28;20188;-81
2022/08/21 06:59:35;;;;;;;8.90;1.90;;;17.40;53.90;;;;;;5050276;28;20286;-80
2022/08/21 07:02:02;;;;;;;8.57;1.80;;;17.30;54.30;;;;;;5053920;28;20184;-81
2022/08/21 07:04:29;;;;;;;17.60;2.83;;;17.00;55.50;;;;;;5050220;28;20187;-84
2022/08/21 07:06:57;;;;;;;6.43;2.00;;;16.80;56.10;;;;;;5051012;28;20184;-81
2022/08/21 07:09:24;;;;;;;7.33;2.30;;;16.70;56.90;;;;;;5052057;28;20211;-81
2022/08/21 07:11:54;;;;;;;19.43;2.20;;;16.60;57.50;;;;;;5037310;28;20176;-80
2022/08/21 07:14:22;;;;;;;3.80;1.40;;;16.50;57.90;;;;;;5049352;28;20265;-85
2022/08/21 07:16:51;;;;;;;8.43;2.03;;;16.40;58.40;;;;;;5044205;28;20211;-84
2022/08/21 07:19:19;;;;;;;10.10;2.17;;;16.40;58.40;;;;;;5052273;28;20208;-82
2022/08/21 07:21:47;;;;;;;4.47;1.77;;;16.30;58.80;;;;;;5048698;28;20279;-81
2022/08/21 07:24:14;;;;;;;12.07;1.80;;;16.30;58.70;;;;;;5041110;28;20180;-81
2022/08/21 07:26:42;;;;;;;6.63;2.07;;;16.20;58.60;;;;;;5053933;28;20189;-81
2022/08/21 07:29:09;;;;;;;5.23;1.80;;;16.10;59.10;;;;;;5043295;28;20271;-81
2022/08/21 07:31:36;;;;;;;60.03;7.57;;;15.90;59.30;;;;;;5040849;28;20188;-80
2022/08/21 07:34:04;;;;;;;8.80;2.07;;;15.90;59.60;;;;;;5019564;28;20670;-80
2022/08/21 07:36:31;;;;;;;31.57;4.20;;;15.80;59.80;;;;;;5040970;28;20579;-82
2022/08/21 07:38:59;;;;;;;6.37;1.83;;;15.80;60.00;;;;;;5049445;28;20244;-80
2022/08/21 07:41:28;;;;;;;3.57;1.57;;;15.70;59.90;;;;;;5043210;28;20191;-81
2022/08/21 07:43:59;;;;;;;4.17;1.73;;;15.70;60.10;;;;;;5036778;28;20184;-79
2022/08/21 07:46:30;;;;;;;5.63;1.50;;;15.60;59.80;;;;;;5042998;28;20180;-79
2022/08/21 07:48:57;;;;;;;5.83;1.80;;;15.60;60.20;;;;;;5052945;28;20267;-78
2022/08/21 07:51:27;;;;;;;5.60;1.30;;;15.60;60.60;;;;;;5052599;28;20172;-82
2022/08/21 07:53:57;;;;;;;7.33;1.80;;;15.50;60.90;;;;;;5047566;28;20169;-81
2022/08/21 07:56:25;;;;;;;8.57;2.17;;;15.50;61.40;;;;;;5028149;28;20187;-82
2022/08/21 07:58:53;;;;;;;7.47;1.83;;;15.50;61.80;;;;;;5045310;28;20530;-83
2022/08/21 08:01:21;;;;;;;8.53;1.70;;;15.50;62.00;;;;;;5038833;28;20181;-81
2022/08/21 08:03:48;;;;;;;11.17;2.33;;;15.40;61.80;;;;;;5044133;28;20234;-82
2022/08/21 08:06:18;;;;;;;7.20;2.17;;;15.30;62.00;;;;;;5049143;28;20183;-81
2022/08/21 08:08:47;;;;;;;8.10;2.40;;;15.30;62.50;;;;;;5044941;28;20228;-82
2022/08/21 08:11:17;;;;;;;8.40;2.67;;;15.30;62.20;;;;;;5052756;28;20643;-81
2022/08/21 08:13:51;;;;;;;6.47;3.10;;;15.30;62.90;;;;;;5052848;28;20177;-81
2022/08/21 08:16:19;;;;;;;11.03;5.63;;;15.20;62.80;;;;;;5046003;28;20221;-81
2022/08/21 08:18:46;;;;;;;8.07;1.70;;;15.20;63.40;;;;;;5052075;28;20196;-82
2022/08/21 08:21:14;;;;;;;4.90;1.90;;;15.20;63.20;;;;;;5042077;28;20254;-80
2022/08/21 08:23:44;;;;;;;8.63;2.10;;;15.10;63.40;;;;;;5052521;28;20184;-81
2022/08/21 08:26:12;;;;;;;10.13;2.13;;;15.10;63.90;;;;;;5052547;28;20202;-81
2022/08/21 08:28:39;;;;;;;4.93;2.50;;;15.10;64.00;;;;;;5050325;28;20203;-82
2022/08/21 08:31:07;;;;;;;11.83;2.67;;;15.00;64.20;;;;;;5049111;28;20191;-81
2022/08/21 08:33:34;;;;;;;6.53;2.73;;;15.00;64.50;;;;;;5038637;28;20263;-80
2022/08/21 08:36:02;;;;;;;6.43;2.40;;;15.00;64.50;;;;;;5045411;28;20182;-81
2022/08/21 08:38:29;;;;;;;6.03;2.37;;;15.00;64.80;;;;;;5047931;28;20173;-81
2022/08/21 08:41:12;;;;;;;12.73;2.50;;;14.90;65.10;;;;;;5033992;28;20232;-80
2022/08/21 08:43:42;;;;;;;12.10;2.83;;;14.90;65.40;;;;;;5028619;28;20167;-80
2022/08/21 08:46:16;;;;;;;10.03;2.63;;;14.90;65.30;;;;;;5056032;28;20183;-80
2022/08/21 08:49:03;;;;;;;7.83;2.37;;;14.90;65.40;;;;;;5046207;28;20636;-81
2022/08/21 08:52:04;;;;;;;6.00;1.90;;;14.90;65.50;;;;;;5044260;28;20572;-80
2022/08/21 08:54:49;;;;;;;5.87;2.10;;;14.90;65.60;;;;;;5017420;28;20204;-80
2022/08/21 08:57:22;;;;;;;8.03;2.00;;;14.80;66.00;;;;;;5033014;28;20176;-81
2022/08/21 08:59:54;;;;;;;8.87;3.07;;;14.80;66.30;;;;;;5050699;28;20241;-82
2022/08/21 09:02:27;;;;;;;8.47;2.03;;;14.80;66.40;;;;;;5054767;28;20176;-81
2022/08/21 09:04:55;;;;;;;9.27;2.13;;;14.70;66.50;;;;;;5052806;28;20177;-81
2022/08/21 09:07:56;;;;;;;8.13;2.47;;;14.80;66.20;;;;;;5050798;28;20185;-82
2022/08/21 09:10:42;;;;;;;7.60;2.20;;;14.70;66.30;;;;;;5056207;28;20263;-80
2022/08/21 09:13:59;;;;;;;9.33;2.50;;;14.70;65.90;;;;;;5056142;28;20272;-82
2022/08/21 09:16:44;;;;;;;8.17;2.33;;;14.70;65.60;;;;;;5036934;28;20211;-81
2022/08/21 09:19:32;;;;;;;7.33;1.80;;;14.60;65.40;;;;;;5053134;28;20196;-82
2022/08/21 09:22:20;;;;;;;9.73;2.17;;;14.60;65.20;;;;;;5033663;28;20191;-81
2022/08/21 09:25:21;;;;;;;5.23;2.13;;;14.60;65.20;;;;;;5029616;28;20175;-81
2022/08/21 09:27:50;;;;;;;4.40;1.70;;;14.60;65.30;;;;;;5055681;28;20179;-82
2022/08/21 09:30:19;;;;;;;10.80;2.50;;;14.50;65.50;;;;;;5047680;28;20175;-80
2022/08/21 09:32:49;;;;;;;6.63;2.43;;;14.50;65.80;;;;;;5034669;28;20181;-81
2022/08/21 09:35:20;;;;;;;4.43;2.13;;;14.50;66.10;;;;;;5036599;28;20234;-82
2022/08/21 09:38:06;;;;;;;6.57;1.90;;;14.40;66.10;;;;;;5041380;28;20164;-80
2022/08/21 09:40:48;;;;;;;7.30;1.93;;;14.40;66.70;;;;;;5055167;28;20250;-80
2022/08/21 09:43:19;;;;;;;10.87;2.30;;;14.30;66.60;;;;;;5055929;28;20164;-81
2022/08/21 09:45:48;;;;;;;7.27;2.57;;;14.30;66.40;;;;;;5049368;28;20203;-82
2022/08/21 09:48:25;;;;;;;7.27;2.07;;;14.40;66.20;;;;;;5050363;28;20172;-78
2022/08/21 09:50:54;;;;;;;8.83;1.80;;;14.40;66.40;;;;;;5043458;28;20238;-82
2022/08/21 09:53:26;;;;;;;7.53;1.87;;;14.50;66.20;;;;;;5044883;28;20191;-81
2022/08/21 09:58:51;;;;;;;6.03;1.90;;;14.30;66.90;;;;;;5047355;28;20218;-79
2022/08/21 10:01:20;;;;;;;5.67;2.17;;;14.30;67.30;;;;;;5055508;28;20175;-81
2022/08/21 10:03:48;;;;;;;11.60;2.63;;;14.20;67.60;;;;;;5047685;28;20179;-80
2022/08/21 10:06:28;;;;;;;8.33;2.33;;;14.20;67.90;;;;;;5041231;28;20184;-80
2022/08/21 10:09:24;;;;;;;9.07;2.13;;;14.20;68.00;;;;;;5054985;28;20184;-81
2022/08/21 10:12:13;;;;;;;6.87;2.20;;;14.20;68.10;;;;;;5026727;28;20192;-81
2022/08/21 10:15:19;;;;;;;7.53;2.00;;;14.20;68.10;;;;;;5053724;28;20169;-80
2022/08/21 10:18:10;;;;;;;7.40;1.90;;;14.20;68.50;;;;;;5054601;28;20176;-81
2022/08/21 10:21:09;;;;;;;8.70;1.80;;;14.20;68.60;;;;;;5038536;28;20571;-81
2022/08/21 10:23:45;;;;;;;8.03;2.03;;;14.20;68.90;;;;;;5010257;28;20195;-80
2022/08/21 10:26:45;;;;;;;5.77;2.20;;;14.10;69.10;;;;;;5054018;28;20183;-79
2022/08/21 10:29:19;;;;;;;9.07;2.57;;;14.10;69.10;;;;;;5040820;28;20242;-80
2022/08/21 10:31:49;;;;;;;8.70;2.13;;;14.10;69.20;;;;;;5030793;28;20185;-78
2022/08/21 10:34:19;;;;;;;9.40;2.13;;;14.20;68.80;;;;;;5033763;28;20227;-81
2022/08/21 10:36:52;;;;;;;10.03;2.53;;;14.20;68.50;;;;;;5034062;28;20177;-79
2022/08/21 10:39:56;;;;;;;5.30;2.10;;;14.10;68.80;;;;;;5045820;28;20259;-79
2022/08/21 10:42:23;;;;;;;8.40;2.67;;;14.10;68.70;;;;;;5027474;28;20195;-80
2022/08/21 10:45:14;;;;;;;7.33;2.10;;;14.10;68.50;;;;;;5042746;28;20169;-81
2022/08/21 10:47:55;;;;;;;5.33;1.97;;;14.00;68.70;;;;;;5050899;28;20260;-79
2022/08/21 10:50:44;;;;;;;8.20;2.20;;;14.00;68.90;;;;;;5035499;28;20176;-80
2022/08/21 10:53:34;;;;;;;7.20;2.30;;;14.10;68.50;;;;;;5036342;28;20180;-79
2022/08/21 10:56:10;;;;;;;3.43;2.00;;;14.00;68.50;;;;;;5044344;28;20188;-80
2022/08/21 10:58:59;;;;;;;7.30;2.00;;;14.00;68.70;;;;;;5045873;28;20536;-80
2022/08/21 11:01:45;;;;;;;4.60;2.40;;;14.00;68.70;;;;;;5018693;28;20199;-80
2022/08/21 11:04:59;;;;;;;6.57;2.10;;;14.00;68.80;;;;;;5035051;28;20218;-80
2022/08/21 11:07:32;;;;;;;5.03;1.70;;;13.90;68.90;;;;;;5033703;28;20284;-79
2022/08/21 11:10:10;;;;;;;7.47;2.33;;;13.90;68.90;;;;;;5040320;28;20712;-79
2022/08/21 11:13:02;;;;;;;9.07;2.67;;;13.90;68.90;;;;;;5036055;28;20180;-79
2022/08/21 11:15:45;;;;;;;4.70;1.57;;;13.80;68.90;;;;;;5043295;28;20544;-79
2022/08/21 11:18:42;;;;;;;7.93;2.10;;;13.80;68.80;;;;;;5050380;28;20176;-80
2022/08/21 11:21:19;;;;;;;7.00;1.90;;;13.80;68.70;;;;;;5044962;28;20212;-80
2022/08/21 11:24:06;;;;;;;4.90;1.80;;;13.80;68.70;;;;;;5044654;28;20179;-80
2022/08/21 11:27:16;;;;;;;3.83;1.70;;;13.80;68.60;;;;;;5034971;28;20219;-79
2022/08/21 11:29:50;;;;;;;3.53;1.60;;;13.80;68.70;;;;;;5044268;28;20180;-79
2022/08/21 11:32:18;;;;;;;7.83;1.77;;;13.90;68.50;;;;;;5033612;28;20172;-82
2022/08/21 11:35:09;;;;;;;3.07;1.67;;;13.80;68.60;;;;;;5037896;28;20226;-81
2022/08/21 11:38:11;;;;;;;5.40;1.77;;;13.80;68.70;;;;;;5044378;28;20181;-82
2022/08/21 11:40:54;;;;;;;6.30;1.60;;;13.80;69.00;;;;;;5035062;28;20284;-80
2022/08/21 11:43:38;;;;;;;8.77;1.80;;;13.80;69.80;;;;;;5051918;28;20293;-81
2022/08/21 11:46:14;;;;;;;3.43;1.60;;;13.70;69.70;;;;;;5045739;28;20546;-81
2022/08/21 11:48:48;;;;;;;5.43;2.17;;;13.70;69.70;;;;;;5048489;28;20171;-80
2022/08/21 11:51:20;;;;;;;5.07;1.73;;;13.70;70.00;;;;;;5035229;28;20207;-83
2022/08/21 11:54:03;;;;;;;6.97;2.00;;;13.70;70.30;;;;;;5050772;28;20179;-82
2022/08/21 11:56:50;;;;;;;7.20;2.13;;;13.70;70.50;;;;;;5047836;28;20264;-82
2022/08/21 11:59:39;;;;;;;7.03;1.80;;;13.50;70.90;;;;;;5046403;28;20195;-81
2022/08/21 12:02:15;;;;;;;7.23;1.83;;;13.50;71.00;;;;;;5051806;28;20225;-83
2022/08/21 12:04:59;;;;;;;7.47;2.00;;;13.50;71.30;;;;;;5022850;28;20179;-80
2022/08/21 12:07:35;;;;;;;8.03;2.07;;;13.50;71.50;;;;;;5038862;28;20176;-77
2022/08/21 12:10:10;;;;;;;7.30;1.73;;;13.50;71.70;;;;;;5052533;28;20258;-81
2022/08/21 12:12:39;;;;;;;6.47;2.13;;;13.50;71.70;;;;;;5037835;28;20206;-80
2022/08/21 12:15:23;;;;;;;8.27;2.17;;;13.50;71.60;;;;;;5034467;28;20182;-81
2022/08/21 12:18:01;;;;;;;10.73;2.00;;;13.50;71.60;;;;;;5040585;28;20192;-80
2022/08/21 12:20:43;;;;;;;8.60;2.20;;;13.50;72.10;;;;;;5041265;28;20209;-80
2022/08/21 12:23:11;;;;;;;8.97;1.73;;;13.50;72.00;;;;;;5038279;28;20180;-80
2022/08/21 12:26:03;;;;;;;3.60;1.70;;;13.50;71.80;;;;;;5023662;28;20176;-80
2022/08/21 12:28:32;;;;;;;7.57;1.73;;;13.50;71.60;;;;;;5034837;28;20186;-82
2022/08/21 12:31:00;;;;;;;7.23;2.00;;;13.50;71.60;;;;;;5043981;28;20199;-80
2022/08/21 12:33:32;;;;;;;9.10;1.97;;;13.50;71.60;;;;;;5038064;28;20184;-80
2022/08/21 12:36:13;;;;;;;8.70;2.00;;;13.50;71.60;;;;;;5052688;28;20180;-79
2022/08/21 12:38:55;;;;;;;7.47;2.60;;;13.50;71.80;;;;;;5052285;28;20645;-82
2022/08/21 12:41:49;;;;;;;6.47;1.77;;;13.50;71.50;;;;;;5048811;28;22097;-79
2022/08/21 12:44:28;;;;;;;7.30;1.73;;;13.50;71.50;;;;;;5051972;28;20658;-80
2022/08/21 12:47:06;;;;;;;6.10;1.70;;;13.50;71.30;;;;;;5052675;28;20627;-81
2022/08/21 12:49:38;;;;;;;8.20;2.37;;;13.50;71.60;;;;;;5048042;28;20184;-80
2022/08/21 12:52:14;;;;;;;4.93;2.30;;;13.40;71.60;;;;;;5023764;28;20188;-81
2022/08/21 12:54:43;;;;;;;5.77;2.23;;;13.20;71.90;;;;;;5052646;28;20277;-80
2022/08/21 12:57:24;;;;;;;7.47;2.40;;;13.10;72.80;;;;;;5036766;28;20263;-80
2022/08/21 13:00:01;;;;;;;9.87;2.40;;;13.00;73.10;;;;;;5047846;28;20569;-82
2022/08/21 13:02:37;;;;;;;8.40;2.03;;;12.90;73.90;;;;;;5051521;28;20665;-81
2022/08/21 13:05:09;;;;;;;9.43;2.27;;;12.80;73.70;;;;;;5052546;28;20168;-80
2022/08/21 13:07:38;;;;;;;8.67;2.70;;;12.80;74.20;;;;;;5052252;28;20226;-80
2022/08/21 13:10:25;;;;;;;4.57;2.47;;;12.70;74.00;;;;;;5050886;28;20191;-81
2022/08/21 13:12:58;;;;;;;7.60;3.00;;;12.60;74.20;;;;;;5041170;28;20531;-78
2022/08/21 13:15:33;;;;;;;8.40;2.40;;;12.60;74.70;;;;;;5051830;28;20168;-80